createdAt,value
2019-03-11T00:01:02.852Z,51.88
2019-03-11T00:06:38.052Z,51.27
2019-03-11T00:09:46.357Z,50.69
2019-03-11T00:12:14.781Z,50.38
2019-03-11T00:14:43.175Z,50.51
2019-03-11T00:17:11.580Z,50.35
2019-03-11T00:19:40.032Z,50.03
2019-03-11T00:22:08.429Z,49.76
2019-03-11T00:24:36.829Z,49.26
2019-03-11T00:27:05.263Z,48.97
2019-03-11T00:29:33.648Z,49.21
2019-03-11T00:32:02.049Z,49.40
2019-03-11T00:34:30.465Z,49.08
2019-03-11T00:36:58.854Z,49.02
2019-03-11T00:39:27.243Z,48.73
2019-03-11T00:42:35.908Z,48.79
2019-03-11T00:45:44.230Z,48.61
2019-03-11T00:50:47.150Z,49.00
2019-03-11T00:55:49.515Z,48.89
2019-03-11T00:58:17.922Z,48.91
2019-03-11T01:00:46.334Z,48.96
2019-03-11T01:03:14.697Z,48.83
2019-03-11T01:05:43.134Z,48.82
2019-03-11T01:08:11.623Z,48.93
2019-03-11T01:10:40.074Z,49.06
2019-03-11T01:13:08.568Z,49.09
2019-03-11T01:15:37.027Z,48.96
2019-03-11T01:21:00.298Z,49.03
2019-03-11T01:23:28.691Z,49.25
2019-03-11T01:25:57.081Z,49.39
2019-03-11T01:28:25.533Z,49.31
2019-03-11T01:31:34.110Z,49.33
2019-03-11T01:36:37.960Z,49.20
2019-03-11T01:39:46.328Z,49.24
2019-03-11T01:42:14.717Z,49.18
2019-03-11T01:44:43.115Z,49.30
2019-03-11T01:49:45.525Z,49.46
2019-03-11T01:52:13.952Z,49.45
2019-03-11T01:54:42.343Z,49.50
2019-03-11T01:57:50.693Z,49.60
2019-03-11T02:00:59.009Z,49.55
2019-03-11T02:03:46.681Z,49.69
2019-03-11T02:23:05.167Z,50.06
2019-03-11T02:25:33.583Z,50.01
2019-03-11T02:28:01.973Z,50.04
2019-03-11T02:30:30.376Z,50.11
2019-03-11T02:38:27.808Z,50.15
2019-03-11T02:40:56.198Z,50.19
2019-03-11T02:43:24.587Z,50.23
2019-03-11T02:45:53.015Z,50.22
2019-03-11T02:48:21.410Z,50.03
2019-03-11T02:50:49.808Z,50.01
2019-03-11T02:53:18.413Z,49.93
2019-03-11T02:55:50.924Z,49.74
2019-03-11T02:58:18.589Z,49.61
2019-03-11T03:03:41.737Z,49.46
2019-03-11T03:11:52.539Z,49.38
2019-03-11T03:16:55.416Z,49.32
2019-03-11T03:22:16.926Z,49.27
2019-03-11T03:24:45.343Z,49.35
2019-03-11T03:27:13.737Z,49.31
2019-03-11T03:29:42.135Z,49.32
2019-03-11T03:32:10.562Z,49.30
2019-03-11T03:37:26.475Z,49.66
2019-03-11T03:39:54.870Z,50.07
2019-03-11T03:42:23.269Z,50.14
2019-03-11T03:45:30.283Z,50.08
2019-03-11T03:48:38.749Z,50.29
2019-03-11T03:51:08.743Z,50.42
2019-03-11T03:53:37.128Z,50.62
2019-03-11T03:56:05.524Z,50.50
2019-03-11T03:58:33.938Z,50.74
2019-03-11T04:01:02.335Z,50.67
2019-03-11T04:03:30.843Z,50.46
2019-03-11T04:06:18.458Z,50.55
2019-03-11T04:08:46.862Z,50.67
2019-03-11T04:11:15.260Z,50.87
2019-03-11T04:13:43.682Z,51.20
2019-03-11T04:16:31.324Z,51.27
2019-03-11T04:18:59.745Z,51.27
2019-03-11T04:24:55.483Z,51.39
2019-03-11T04:27:23.878Z,51.56
2019-03-11T04:30:11.559Z,51.67
2019-03-11T04:32:39.953Z,51.69
2019-03-11T04:35:27.683Z,51.74
2019-03-11T04:37:56.076Z,51.86
2019-03-11T04:40:26.446Z,51.94
2019-03-11T04:45:28.676Z,51.89
2019-03-11T04:48:16.427Z,51.88
2019-03-11T04:50:44.820Z,51.87
2019-03-11T04:53:13.214Z,51.89
2019-03-11T04:58:16.221Z,51.79
2019-03-11T05:00:44.685Z,51.72
2019-03-11T05:03:13.069Z,51.66
2019-03-11T05:05:41.463Z,51.50
2019-03-11T05:08:09.899Z,51.44
2019-03-11T05:10:38.318Z,51.43
2019-03-11T05:13:26.057Z,51.38
2019-03-11T05:15:54.445Z,51.38
2019-03-11T05:18:22.855Z,51.29
2019-03-11T05:23:25.769Z,51.16
2019-03-11T05:25:54.205Z,51.09
2019-03-11T05:31:30.695Z,51.11
2019-03-11T05:34:39.020Z,51.01
2019-03-11T05:39:41.475Z,50.67
2019-03-11T05:42:09.905Z,50.56
2019-03-11T05:44:38.313Z,50.42
2019-03-11T05:47:06.703Z,50.37
2019-03-11T05:52:21.238Z,50.38
2019-03-11T05:54:49.686Z,50.38
2019-03-11T05:57:18.064Z,50.19
2019-03-11T05:59:46.487Z,50.05
2019-03-11T06:02:14.916Z,49.94
2019-03-11T06:04:43.315Z,49.76
2019-03-11T06:07:11.701Z,49.59
2019-03-11T06:12:13.958Z,49.40
2019-03-11T06:17:16.043Z,49.02
2019-03-11T06:19:44.450Z,48.87
2019-03-11T06:27:22.481Z,48.23
2019-03-11T06:35:01.654Z,47.45
2019-03-11T06:37:30.146Z,46.83
2019-03-11T06:39:58.530Z,46.41
2019-03-11T06:42:26.924Z,46.32
2019-03-11T06:44:55.351Z,46.05
2019-03-11T06:47:23.742Z,45.49
2019-03-11T06:49:52.142Z,45.41
2019-03-11T06:54:54.774Z,45.04
2019-03-11T06:59:57.643Z,44.96
2019-03-11T07:05:02.194Z,44.38
2019-03-11T07:07:30.033Z,44.44
2019-03-11T07:09:58.424Z,44.36
2019-03-11T07:12:26.839Z,44.43
2019-03-11T07:14:55.270Z,44.20
2019-03-11T07:17:23.675Z,44.15
2019-03-11T07:19:52.054Z,44.28
2019-03-11T07:22:20.473Z,44.36
2019-03-11T07:24:48.882Z,44.60
2019-03-11T07:27:17.277Z,44.58
2019-03-11T07:29:45.698Z,44.59
2019-03-11T07:32:14.092Z,44.65
2019-03-11T07:34:42.480Z,44.71
2019-03-11T07:39:45.045Z,44.97
2019-03-11T07:44:47.434Z,45.61
2019-03-11T07:47:15.825Z,45.87
2019-03-11T07:49:44.244Z,46.12
2019-03-11T07:52:12.637Z,46.31
2019-03-11T07:54:41.034Z,46.35
2019-03-11T07:57:21.740Z,46.53
2019-03-11T07:59:50.127Z,46.64
2019-03-11T08:02:18.609Z,46.65
2019-03-11T08:07:20.650Z,46.77
2019-03-11T08:09:49.134Z,47.60
2019-03-11T08:12:17.548Z,48.58
2019-03-11T08:14:45.935Z,50.09
2019-03-11T08:17:14.415Z,50.38
2019-03-11T08:19:42.760Z,50.58
2019-03-11T08:22:11.177Z,50.59
2019-03-11T08:27:13.224Z,51.08
2019-03-11T08:29:41.614Z,51.16
2019-03-11T08:32:10.039Z,52.45
2019-03-11T08:34:38.460Z,53.71
2019-03-11T08:37:06.856Z,55.77
2019-03-11T08:39:35.341Z,58.13
2019-03-11T08:42:37.499Z,61.63
2019-03-11T08:44:53.208Z,63.17
2019-03-11T08:47:21.610Z,63.61
2019-03-11T08:49:50.010Z,63.99
2019-03-11T08:52:18.429Z,64.38
2019-03-11T08:54:46.819Z,64.80
2019-03-11T08:57:15.210Z,64.68
2019-03-11T08:59:55.718Z,64.69
2019-03-11T09:02:24.108Z,64.82
2019-03-11T09:04:52.494Z,64.92
2019-03-11T09:09:54.877Z,65.45
2019-03-11T09:15:37.113Z,65.56
2019-03-11T09:18:05.567Z,65.35
2019-03-11T09:20:33.969Z,65.53
2019-03-11T09:23:21.645Z,65.91
2019-03-11T09:25:50.039Z,66.01
2019-03-11T09:28:18.489Z,66.19
2019-03-11T09:33:20.581Z,66.73
2019-03-11T09:35:49.023Z,66.72
2019-03-11T09:38:17.443Z,66.63
2019-03-11T09:43:40.101Z,66.45
2019-03-11T09:46:08.558Z,66.16
2019-03-11T09:48:36.955Z,66.18
2019-03-11T09:51:24.709Z,66.19
2019-03-11T09:53:53.100Z,66.21
2019-03-11T09:56:21.491Z,66.05
2019-03-11T09:58:49.950Z,66.16
2019-03-11T10:01:30.815Z,65.91
2019-03-11T10:03:59.245Z,65.67
2019-03-11T10:06:27.658Z,65.34
2019-03-11T10:08:56.066Z,65.19
2019-03-11T10:11:24.489Z,65.21
2019-03-11T10:13:52.885Z,65.24
2019-03-11T10:16:21.268Z,65.33
2019-03-11T10:21:23.674Z,64.96
2019-03-11T10:26:26.305Z,64.64
2019-03-11T10:28:54.751Z,64.53
2019-03-11T10:31:23.149Z,64.43
2019-03-11T10:34:10.894Z,64.10
2019-03-11T10:36:39.296Z,63.92
2019-03-11T10:39:27.072Z,63.54
2019-03-11T10:41:55.464Z,63.12
2019-03-11T10:44:23.865Z,62.71
2019-03-11T10:46:52.291Z,62.29
2019-03-11T10:49:20.698Z,62.01
2019-03-11T10:51:49.095Z,61.79
2019-03-11T10:54:17.548Z,61.67
2019-03-11T10:56:45.984Z,61.58
2019-03-11T10:59:14.386Z,61.40
2019-03-11T11:02:02.011Z,61.02
2019-03-11T11:04:30.398Z,60.72
2019-03-11T11:06:58.795Z,60.65
2019-03-11T11:09:46.446Z,60.41
2019-03-11T11:12:14.860Z,60.28
2019-03-11T11:14:43.254Z,60.22
2019-03-11T11:17:30.878Z,60.19
2019-03-11T11:20:03.281Z,59.93
2019-03-11T11:22:41.302Z,59.63
2019-03-11T11:24:59.555Z,59.47
2019-03-11T11:27:28.010Z,59.14
2019-03-11T11:29:56.435Z,58.93
2019-03-11T11:34:59.444Z,58.51
2019-03-11T11:40:01.817Z,58.52
2019-03-11T11:45:44.090Z,58.30
2019-03-11T11:50:46.863Z,58.02
2019-03-11T11:53:34.477Z,57.81
2019-03-11T11:56:02.873Z,57.53
2019-03-11T11:58:31.266Z,57.09
2019-03-11T12:00:59.731Z,56.76
2019-03-11T12:03:28.130Z,56.60
2019-03-11T12:06:09.051Z,56.37
2019-03-11T12:08:39.280Z,55.97
2019-03-11T12:11:07.688Z,55.83
2019-03-11T12:13:36.112Z,55.72
2019-03-11T12:16:23.848Z,55.29
2019-03-11T12:18:52.235Z,55.38
2019-03-11T12:21:20.703Z,55.39
2019-03-11T12:24:08.523Z,55.13
2019-03-11T12:26:36.919Z,55.13
2019-03-11T12:29:45.425Z,55.15
2019-03-11T12:35:22.177Z,54.90
2019-03-11T12:38:30.493Z,54.84
2019-03-11T12:40:58.935Z,54.73
2019-03-11T12:43:27.331Z,54.28
2019-03-11T12:45:55.737Z,53.71
2019-03-11T12:48:46.533Z,53.12
2019-03-11T12:51:15.423Z,52.79
2019-03-11T12:53:44.251Z,52.75
2019-03-11T12:58:47.105Z,52.66
2019-03-11T13:01:15.498Z,52.41
2019-03-11T13:06:18.849Z,51.75
2019-03-11T13:09:07.455Z,51.60
2019-03-11T13:11:56.191Z,51.23
2019-03-11T13:14:24.606Z,51.00
2019-03-11T13:16:52.995Z,50.69
2019-03-11T13:19:21.394Z,50.44
2019-03-11T13:22:09.523Z,50.05
2019-03-11T13:24:37.896Z,49.69
2019-03-11T13:27:06.291Z,49.75
2019-03-11T13:29:34.723Z,50.28
2019-03-11T13:34:50.707Z,51.95
2019-03-11T13:37:19.188Z,52.54
2019-03-11T13:39:47.587Z,52.99
2019-03-11T13:45:30.448Z,53.56
2019-03-11T13:48:18.104Z,53.84
2019-03-11T13:50:46.515Z,54.04
2019-03-11T13:59:03.700Z,54.56
2019-03-11T14:01:32.310Z,54.45
2019-03-11T14:04:00.703Z,54.22
2019-03-11T14:06:48.433Z,53.75
2019-03-11T14:09:16.831Z,53.55
2019-03-11T14:14:52.091Z,52.72
2019-03-11T14:20:48.267Z,51.98
2019-03-11T14:23:16.688Z,51.80
2019-03-11T14:26:04.500Z,51.80
2019-03-11T14:28:32.897Z,51.74
2019-03-11T14:34:28.319Z,51.12
2019-03-11T14:36:56.722Z,51.05
2019-03-11T14:39:44.308Z,50.83
2019-03-11T14:42:12.698Z,50.33
2019-03-11T14:44:41.142Z,50.21
2019-03-11T14:49:44.145Z,49.77
2019-03-11T14:52:31.865Z,49.60
2019-03-11T14:55:01.025Z,49.20
2019-03-11T14:57:48.777Z,49.28
2019-03-11T15:00:57.696Z,49.32
2019-03-11T15:03:26.449Z,49.24
2019-03-11T15:05:54.890Z,49.03
2019-03-11T15:08:43.373Z,49.23
2019-03-11T15:16:54.624Z,50.33
2019-03-11T15:19:23.333Z,50.82
2019-03-11T15:21:52.236Z,50.76
2019-03-11T15:24:39.823Z,50.91
2019-03-11T15:27:08.540Z,50.90
2019-03-11T15:32:26.443Z,50.98
2019-03-11T15:34:55.113Z,51.00
2019-03-11T15:37:23.619Z,51.06
2019-03-11T15:42:26.579Z,51.43
2019-03-11T15:47:48.126Z,51.43
2019-03-11T15:53:11.740Z,51.58
2019-03-11T15:55:40.202Z,51.41
2019-03-11T15:58:08.600Z,51.31
2019-03-11T16:01:16.960Z,51.32
2019-03-11T16:03:45.358Z,51.35
2019-03-11T16:06:53.729Z,51.38
2019-03-11T16:09:41.318Z,51.39
2019-03-11T16:14:49.225Z,51.51
2019-03-11T16:17:13.564Z,51.50
2019-03-11T16:19:41.964Z,51.54
2019-03-11T16:22:10.354Z,51.57
2019-03-11T16:24:38.772Z,51.52
2019-03-11T16:27:26.366Z,51.41
2019-03-11T16:29:54.807Z,51.50
2019-03-11T16:32:23.196Z,52.08
2019-03-11T16:34:51.582Z,53.76
2019-03-11T16:39:53.703Z,56.34
2019-03-11T16:45:56.422Z,57.02
2019-03-11T16:48:43.946Z,57.20
2019-03-11T16:51:12.359Z,57.46
2019-03-11T16:54:00.116Z,57.66
2019-03-11T16:59:23.130Z,57.68
2019-03-11T17:02:31.441Z,57.63
2019-03-11T17:04:59.855Z,57.67
2019-03-11T17:07:28.246Z,57.29
2019-03-11T17:09:56.699Z,57.40
2019-03-11T17:14:59.453Z,57.93
2019-03-11T17:17:27.875Z,58.09
2019-03-11T17:19:56.280Z,58.55
2019-03-11T17:22:24.667Z,59.64
2019-03-11T17:24:53.125Z,60.48
2019-03-11T17:27:21.548Z,62.03
2019-03-11T17:35:32.404Z,65.87
2019-03-11T17:38:20.049Z,65.89
2019-03-11T17:40:48.443Z,66.09
2019-03-11T17:43:16.835Z,65.75
2019-03-11T17:46:04.478Z,65.85
2019-03-11T17:48:52.214Z,65.93
2019-03-11T17:51:20.635Z,65.89
2019-03-11T17:53:49.042Z,65.72
2019-03-11T17:56:17.439Z,65.97
2019-03-11T17:58:45.865Z,66.07
2019-03-11T18:01:33.588Z,66.18
2019-03-11T18:04:02.147Z,66.24
2019-03-11T18:06:49.742Z,65.87
2019-03-11T18:11:52.639Z,65.60
2019-03-11T18:16:55.358Z,65.51
2019-03-11T18:19:23.777Z,65.41
2019-03-11T18:22:11.363Z,65.45
2019-03-11T18:24:39.798Z,65.37
2019-03-11T18:27:08.189Z,65.29
2019-03-11T18:29:36.607Z,65.17
2019-03-11T18:34:39.126Z,65.05
2019-03-11T18:37:47.521Z,65.03
2019-03-11T18:40:55.856Z,65.01
2019-03-11T18:45:58.229Z,64.42
2019-03-11T18:48:46.065Z,64.29
2019-03-11T18:51:14.447Z,64.14
2019-03-11T18:53:42.853Z,64.04
2019-03-11T18:58:45.124Z,64.14
2019-03-11T19:01:13.536Z,64.00
2019-03-11T19:04:01.157Z,63.94
2019-03-11T19:06:29.570Z,63.93
2019-03-11T19:08:58.044Z,63.77
2019-03-11T19:11:26.418Z,63.80
2019-03-11T19:16:28.852Z,63.91
2019-03-11T19:19:16.582Z,63.87
2019-03-11T19:21:45.033Z,63.98
2019-03-11T19:24:13.421Z,64.15
2019-03-11T19:29:15.977Z,64.33
2019-03-11T19:31:44.426Z,64.28
2019-03-11T19:36:46.589Z,64.17
2019-03-11T19:42:09.714Z,63.98
2019-03-11T19:44:38.083Z,63.90
2019-03-11T19:47:06.567Z,63.83
2019-03-11T19:49:34.970Z,63.61
2019-03-11T19:52:03.345Z,63.46
2019-03-11T19:54:31.767Z,63.44
2019-03-11T19:57:00.176Z,63.30
2019-03-11T19:59:28.638Z,63.16
2019-03-11T20:01:57.033Z,63.12
2019-03-11T20:04:25.463Z,63.06
2019-03-11T20:06:53.891Z,62.99
2019-03-11T20:09:22.272Z,62.94
2019-03-11T20:14:24.636Z,62.78
2019-03-11T20:16:53.104Z,62.67
2019-03-11T20:19:21.505Z,62.51
2019-03-11T20:21:50.847Z,62.52
2019-03-11T20:24:39.389Z,62.49
2019-03-11T20:27:07.886Z,62.50
2019-03-11T20:29:36.266Z,62.37
2019-03-11T20:32:04.752Z,62.35
2019-03-11T20:34:52.509Z,62.21
2019-03-11T20:39:55.412Z,62.13
2019-03-11T20:42:23.783Z,61.90
2019-03-11T20:44:52.229Z,61.83
2019-03-11T20:47:20.632Z,61.76
2019-03-11T20:49:49.029Z,61.73
2019-03-11T20:52:36.683Z,61.67
2019-03-11T20:55:45.035Z,61.70
2019-03-11T20:58:13.386Z,61.62
2019-03-11T21:00:41.990Z,61.50
2019-03-11T21:06:46.750Z,61.53
2019-03-11T21:09:56.819Z,61.35
2019-03-11T21:12:25.262Z,61.25
2019-03-11T21:14:53.673Z,61.22
2019-03-11T21:17:26.950Z,61.16
2019-03-11T21:22:26.581Z,60.92
2019-03-11T21:27:28.874Z,60.87
2019-03-11T21:29:57.446Z,60.83
2019-03-11T21:32:27.525Z,60.86
2019-03-11T21:34:55.972Z,60.70
2019-03-11T21:39:58.411Z,60.49
2019-03-11T21:42:26.973Z,60.32
2019-03-11T21:45:15.010Z,60.21
2019-03-11T21:50:36.384Z,60.09
2019-03-11T21:55:38.815Z,60.07
2019-03-11T22:00:40.855Z,59.98
2019-03-11T22:03:09.249Z,59.83
2019-03-11T22:08:11.381Z,59.74
2019-03-11T22:10:39.774Z,59.65
2019-03-11T22:15:42.131Z,59.57
2019-03-11T22:18:10.530Z,59.59
2019-03-11T22:20:39.001Z,59.69
2019-03-11T22:23:07.391Z,59.70
2019-03-11T22:25:35.798Z,59.72
2019-03-11T22:28:44.206Z,59.66
2019-03-11T22:31:12.611Z,59.62
2019-03-11T22:33:41.006Z,59.59
2019-03-11T22:36:09.446Z,59.56
2019-03-11T22:38:37.835Z,59.60
2019-03-11T22:41:25.525Z,59.59
2019-03-11T22:43:53.941Z,59.55
2019-03-11T22:46:22.317Z,59.53
2019-03-11T22:48:50.801Z,59.55
2019-03-11T22:54:06.628Z,59.53
2019-03-11T22:56:35.015Z,59.51
2019-03-11T22:59:03.411Z,59.50
2019-03-11T23:02:11.964Z,59.49
2019-03-11T23:04:41.864Z,59.49
2019-03-11T23:07:10.259Z,59.57
2019-03-11T23:09:38.722Z,59.71
2019-03-11T23:12:07.113Z,59.69
2019-03-11T23:14:35.505Z,59.70
2019-03-11T23:19:58.894Z,59.62
2019-03-11T23:22:27.283Z,59.58
2019-03-11T23:24:55.678Z,59.60
2019-03-11T23:27:24.139Z,59.54
2019-03-11T23:29:52.532Z,59.54
2019-03-11T23:32:20.920Z,59.42
2019-03-11T23:34:49.335Z,59.41
2019-03-11T23:37:17.731Z,59.30
2019-03-11T23:39:46.123Z,59.26
2019-03-11T23:42:14.667Z,59.29
2019-03-11T23:44:43.042Z,59.21
2019-03-11T23:47:11.435Z,59.12
2019-03-11T23:52:13.845Z,58.94
2019-03-11T23:57:16.180Z,58.81
2019-03-11T23:59:44.579Z,58.78
